sensor_id;sensor_type;location;lat;lon;timestamp;temperature;humidity
43862;DHT22;29510;52.140;5.034;2023-12-07T00:02:28;1.10;99.90
43862;DHT22;29510;52.140;5.034;2023-12-07T00:12:29;1.20;99.90
43862;DHT22;29510;52.140;5.034;2023-12-07T00:22:30;1.20;99.90
43862;DHT22;29510;52.140;5.034;2023-12-07T00:32:30;1.20;99.90
43862;DHT22;29510;52.140;5.034;2023-12-07T00:42:31;1.20;99.90
43862;DHT22;29510;52.140;5.034;2023-12-07T00:52:31;1.00;99.90
43862;DHT22;29510;52.140;5.034;2023-12-07T01:02:32;0.90;99.90
43862;DHT22;29510;52.140;5.034;2023-12-07T01:12:33;0.70;99.90
43862;DHT22;29510;52.140;5.034;2023-12-07T01:22:33;0.70;99.90
43862;DHT22;29510;52.140;5.034;2023-12-07T01:32:34;0.60;99.90
43862;DHT22;29510;52.140;5.034;2023-12-07T01:42:34;0.60;99.90
43862;DHT22;29510;52.140;5.034;2023-12-07T01:52:41;0.50;99.90
43862;DHT22;29510;52.140;5.034;2023-12-07T02:02:44;0.50;99.90
43862;DHT22;29510;52.140;5.034;2023-12-07T02:12:47;0.40;99.90
43862;DHT22;29510;52.140;5.034;2023-12-07T02:22:55;0.50;99.90
43862;DHT22;29510;52.140;5.034;2023-12-07T02:32:56;0.50;99.90
43862;DHT22;29510;52.140;5.034;2023-12-07T02:42:58;0.50;99.90
43862;DHT22;29510;52.140;5.034;2023-12-07T02:52:59;0.50;99.90
43862;DHT22;29510;52.140;5.034;2023-12-07T03:03:00;0.50;99.90
43862;DHT22;29510;52.140;5.034;2023-12-07T03:13:00;0.50;99.90
43862;DHT22;29510;52.140;5.034;2023-12-07T03:23:01;0.40;99.90
43862;DHT22;29510;52.140;5.034;2023-12-07T03:33:01;0.40;99.90
43862;DHT22;29510;52.140;5.034;2023-12-07T03:43:02;0.40;99.90
43862;DHT22;29510;52.140;5.034;2023-12-07T03:53:04;0.70;99.90
43862;DHT22;29510;52.140;5.034;2023-12-07T04:03:05;0.90;99.90
43862;DHT22;29510;52.140;5.034;2023-12-07T04:13:05;1.10;99.90
43862;DHT22;29510;52.140;5.034;2023-12-07T04:23:06;1.30;99.90
43862;DHT22;29510;52.140;5.034;2023-12-07T04:33:07;1.40;99.90
43862;DHT22;29510;52.140;5.034;2023-12-07T04:43:07;1.60;99.90
43862;DHT22;29510;52.140;5.034;2023-12-07T04:53:08;1.70;99.90
43862;DHT22;29510;52.140;5.034;2023-12-07T05:03:08;1.60;99.90
43862;DHT22;29510;52.140;5.034;2023-12-07T05:13:09;1.60;99.90
43862;DHT22;29510;52.140;5.034;2023-12-07T05:23:10;1.60;99.90
43862;DHT22;29510;52.140;5.034;2023-12-07T05:33:11;1.70;99.90
43862;DHT22;29510;52.140;5.034;2023-12-07T05:43:12;1.60;99.90
43862;DHT22;29510;52.140;5.034;2023-12-07T05:53:12;1.50;99.90
43862;DHT22;29510;52.140;5.034;2023-12-07T06:03:13;1.30;99.90
43862;DHT22;29510;52.140;5.034;2023-12-07T06:13:15;1.20;99.90
43862;DHT22;29510;52.140;5.034;2023-12-07T06:23:16;1.00;99.90
43862;DHT22;29510;52.140;5.034;2023-12-07T06:33:16;0.80;99.90
43862;DHT22;29510;52.140;5.034;2023-12-07T06:43:17;0.80;99.90
43862;DHT22;29510;52.140;5.034;2023-12-07T06:53:18;0.70;99.90
43862;DHT22;29510;52.140;5.034;2023-12-07T07:03:19;0.70;99.90
43862;DHT22;29510;52.140;5.034;2023-12-07T07:13:19;0.60;99.90
43862;DHT22;29510;52.140;5.034;2023-12-07T07:23:20;0.70;99.90
43862;DHT22;29510;52.140;5.034;2023-12-07T07:33:21;0.70;99.90
43862;DHT22;29510;52.140;5.034;2023-12-07T07:43:21;0.80;99.90
43862;DHT22;29510;52.140;5.034;2023-12-07T07:53:22;0.70;99.90
43862;DHT22;29510;52.140;5.034;2023-12-07T08:03:23;0.70;99.90
43862;DHT22;29510;52.140;5.034;2023-12-07T08:13:23;0.80;99.90
43862;DHT22;29510;52.140;5.034;2023-12-07T08:23:24;0.80;99.90
43862;DHT22;29510;52.140;5.034;2023-12-07T08:33:24;0.80;99.90
43862;DHT22;29510;52.140;5.034;2023-12-07T08:43:25;0.70;99.90
43862;DHT22;29510;52.140;5.034;2023-12-07T08:53:26;0.80;99.90
43862;DHT22;29510;52.140;5.034;2023-12-07T09:03:26;0.90;99.90
43862;DHT22;29510;52.140;5.034;2023-12-07T09:13:31;0.90;99.90
43862;DHT22;29510;52.140;5.034;2023-12-07T09:23:32;1.10;99.90
43862;DHT22;29510;52.140;5.034;2023-12-07T09:33:33;1.00;99.90
43862;DHT22;29510;52.140;5.034;2023-12-07T09:43:33;1.00;99.90
43862;DHT22;29510;52.140;5.034;2023-12-07T09:53:34;1.10;99.90
43862;DHT22;29510;52.140;5.034;2023-12-07T10:03:35;1.10;99.90
43862;DHT22;29510;52.140;5.034;2023-12-07T10:13:37;1.10;99.90
43862;DHT22;29510;52.140;5.034;2023-12-07T10:23:38;1.10;99.90
43862;DHT22;29510;52.140;5.034;2023-12-07T10:33:39;1.20;99.90
43862;DHT22;29510;52.140;5.034;2023-12-07T10:43:43;1.20;99.90
43862;DHT22;29510;52.140;5.034;2023-12-07T10:53:45;1.30;99.90
43862;DHT22;29510;52.140;5.034;2023-12-07T11:03:49;1.40;99.90
43862;DHT22;29510;52.140;5.034;2023-12-07T11:13:58;1.50;99.90
43862;DHT22;29510;52.140;5.034;2023-12-07T11:24:00;1.50;99.90
43862;DHT22;29510;52.140;5.034;2023-12-07T11:34:06;1.60;99.90
43862;DHT22;29510;52.140;5.034;2023-12-07T11:44:09;1.70;99.90
43862;DHT22;29510;52.140;5.034;2023-12-07T11:54:10;1.70;99.90
43862;DHT22;29510;52.140;5.034;2023-12-07T12:04:11;1.80;99.90
43862;DHT22;29510;52.140;5.034;2023-12-07T12:14:14;2.00;99.90
43862;DHT22;29510;52.140;5.034;2023-12-07T12:24:14;2.00;99.90
43862;DHT22;29510;52.140;5.034;2023-12-07T12:34:15;2.00;99.90
43862;DHT22;29510;52.140;5.034;2023-12-07T12:44:19;2.10;99.90
43862;DHT22;29510;52.140;5.034;2023-12-07T12:54:20;2.30;99.90
43862;DHT22;29510;52.140;5.034;2023-12-07T13:04:21;2.30;99.90
43862;DHT22;29510;52.140;5.034;2023-12-07T13:14:22;2.30;99.90
43862;DHT22;29510;52.140;5.034;2023-12-07T13:24:22;2.40;99.90
43862;DHT22;29510;52.140;5.034;2023-12-07T13:34:23;2.50;99.90
43862;DHT22;29510;52.140;5.034;2023-12-07T13:44:23;2.50;99.90
43862;DHT22;29510;52.140;5.034;2023-12-07T13:54:24;2.50;99.90
43862;DHT22;29510;52.140;5.034;2023-12-07T14:04:25;2.50;99.90
43862;DHT22;29510;52.140;5.034;2023-12-07T14:14:26;2.60;99.90
43862;DHT22;29510;52.140;5.034;2023-12-07T14:24:26;2.60;99.90
43862;DHT22;29510;52.140;5.034;2023-12-07T14:34:27;2.70;99.90
43862;DHT22;29510;52.140;5.034;2023-12-07T14:44:28;2.70;99.90
43862;DHT22;29510;52.140;5.034;2023-12-07T14:54:29;2.70;99.90
43862;DHT22;29510;52.140;5.034;2023-12-07T15:04:31;2.70;99.90
43862;DHT22;29510;52.140;5.034;2023-12-07T15:14:31;2.80;99.90
43862;DHT22;29510;52.140;5.034;2023-12-07T15:24:32;2.80;99.90
43862;DHT22;29510;52.140;5.034;2023-12-07T15:34:33;2.70;99.90
43862;DHT22;29510;52.140;5.034;2023-12-07T15:44:33;2.70;99.90
43862;DHT22;29510;52.140;5.034;2023-12-07T15:54:34;2.70;99.90
43862;DHT22;29510;52.140;5.034;2023-12-07T16:04:35;2.70;99.90
43862;DHT22;29510;52.140;5.034;2023-12-07T16:14:36;2.70;99.90
43862;DHT22;29510;52.140;5.034;2023-12-07T16:24:37;2.60;99.90
43862;DHT22;29510;52.140;5.034;2023-12-07T16:34:39;2.60;99.90
43862;DHT22;29510;52.140;5.034;2023-12-07T16:44:39;2.50;99.90
43862;DHT22;29510;52.140;5.034;2023-12-07T16:54:41;2.60;99.90
43862;DHT22;29510;52.140;5.034;2023-12-07T17:04:41;2.60;99.90
43862;DHT22;29510;52.140;5.034;2023-12-07T17:14:42;2.80;99.90
43862;DHT22;29510;52.140;5.034;2023-12-07T17:24:43;2.80;99.90
43862;DHT22;29510;52.140;5.034;2023-12-07T17:34:43;2.90;99.90
43862;DHT22;29510;52.140;5.034;2023-12-07T17:44:44;2.90;99.90
43862;DHT22;29510;52.140;5.034;2023-12-07T17:54:45;3.10;99.90
43862;DHT22;29510;52.140;5.034;2023-12-07T18:04:46;3.20;95.40
43862;DHT22;29510;52.140;5.034;2023-12-07T18:14:47;3.20;67.40
43862;DHT22;29510;52.140;5.034;2023-12-07T18:24:47;3.20;54.80
43862;DHT22;29510;52.140;5.034;2023-12-07T18:34:48;3.30;40.90
43862;DHT22;29510;52.140;5.034;2023-12-07T18:44:48;3.30;28.70
43862;DHT22;29510;52.140;5.034;2023-12-07T18:54:49;3.30;26.90
43862;DHT22;29510;52.140;5.034;2023-12-07T19:04:50;3.30;21.50
43862;DHT22;29510;52.140;5.034;2023-12-07T19:14:50;3.30;19.80
43862;DHT22;29510;52.140;5.034;2023-12-07T19:24:51;3.30;15.70
43862;DHT22;29510;52.140;5.034;2023-12-07T19:34:51;3.30;10.90
43862;DHT22;29510;52.140;5.034;2023-12-07T19:44:52;3.30;8.70
43862;DHT22;29510;52.140;5.034;2023-12-07T19:54:53;3.40;5.90
43862;DHT22;29510;52.140;5.034;2023-12-07T20:04:55;3.40;2.10
43862;DHT22;29510;52.140;5.034;2023-12-07T20:14:55;3.40;1.00
43862;DHT22;29510;52.140;5.034;2023-12-07T20:24:56;3.40;1.00
43862;DHT22;29510;52.140;5.034;2023-12-07T20:34:57;3.50;1.00
43862;DHT22;29510;52.140;5.034;2023-12-07T20:44:57;3.50;1.00
43862;DHT22;29510;52.140;5.034;2023-12-07T20:54:58;3.50;1.00
43862;DHT22;29510;52.140;5.034;2023-12-07T21:05:00;3.60;1.00
43862;DHT22;29510;52.140;5.034;2023-12-07T21:15:01;3.60;1.00
43862;DHT22;29510;52.140;5.034;2023-12-07T21:25:04;3.60;1.00
43862;DHT22;29510;52.140;5.034;2023-12-07T21:35:07;3.50;1.00
43862;DHT22;29510;52.140;5.034;2023-12-07T21:45:08;3.60;1.00
43862;DHT22;29510;52.140;5.034;2023-12-07T21:55:09;3.60;1.00
43862;DHT22;29510;52.140;5.034;2023-12-07T22:05:12;3.70;1.00
43862;DHT22;29510;52.140;5.034;2023-12-07T22:15:14;3.60;1.00
43862;DHT22;29510;52.140;5.034;2023-12-07T22:25:16;3.60;1.00
43862;DHT22;29510;52.140;5.034;2023-12-07T22:35:16;3.50;1.00
43862;DHT22;29510;52.140;5.034;2023-12-07T22:45:17;3.70;1.00
43862;DHT22;29510;52.140;5.034;2023-12-07T22:55:18;3.60;1.00
43862;DHT22;29510;52.140;5.034;2023-12-07T23:05:19;3.60;1.00
43862;DHT22;29510;52.140;5.034;2023-12-07T23:15:19;3.60;1.00
43862;DHT22;29510;52.140;5.034;2023-12-07T23:25:20;3.60;1.00
43862;DHT22;29510;52.140;5.034;2023-12-07T23:35:20;3.60;1.00
43862;DHT22;29510;52.140;5.034;2023-12-07T23:45:21;3.70;1.00
43862;DHT22;29510;52.140;5.034;2023-12-07T23:55:21;3.60;1.00
